Time;durP1;ratioP1;P1;durP2;ratioP2;P2;SDS_P1;SDS_P2;PMS_P1;PMS_P2;Temp;Humidity;BMP_temperature;BMP_pressure;BME280_temperature;BME280_humidity;BME280_pressure;Samples;Min_cycle;Max_cycle;Signal;HPM_P1;HPM_P2
2021/12/18 00:01:08;;;;;;;4.75;3.53;;;;;;;;;;4824155;29;20034;-71
2021/12/18 00:03:34;;;;;;;6.90;3.70;;;;;;;;;;4823759;29;20046;-69
2021/12/18 00:06:01;;;;;;;4.60;3.13;;;;;;;;;;4837905;29;20034;-72
2021/12/18 00:08:26;;;;;;;5.40;3.20;;;;;;;;;;4842594;29;20034;-70
2021/12/18 00:10:53;;;;;;;5.63;3.50;;;;;;;;;;4842621;29;20059;-69
2021/12/18 00:13:19;;;;;;;6.20;3.47;;;;;;;;;;4834927;29;20037;-71
2021/12/18 00:15:45;;;;;;;12.88;4.28;;;;;;;;;;4824771;29;20058;-71
2021/12/18 00:18:11;;;;;;;10.27;5.55;;;;;;;;;;4837084;29;20038;-71
2021/12/18 00:20:38;;;;;;;7.50;4.22;;;;;;;;;;4842527;29;20041;-71
2021/12/18 00:23:05;;;;;;;8.38;4.95;;;;;;;;;;4843187;29;20054;-72
2021/12/18 00:25:31;;;;;;;7.47;4.80;;;;;;;;;;4842737;29;20504;-69
2021/12/18 00:27:57;;;;;;;7.50;4.50;;;;;;;;;;4838046;29;20110;-71
2021/12/18 00:30:24;;;;;;;4.72;3.33;;;;;;;;;;4824008;29;20058;-70
2021/12/18 00:32:49;;;;;;;4.85;3.17;;;;;;;;;;4824145;29;20045;-69
2021/12/18 00:35:15;;;;;;;8.32;3.55;;;;;;;;;;4824353;29;20034;-68
2021/12/18 00:37:41;;;;;;;4.78;3.28;;;;;;;;;;4824698;29;20432;-68
2021/12/18 00:40:16;;;;;;;4.50;2.70;;;;;;;;;;4824014;29;20055;-68
2021/12/18 00:42:48;;;;;;;6.88;3.20;;;;;;;;;;4824057;29;20039;-69
2021/12/18 00:45:16;;;;;;;6.30;3.30;;;;;;;;;;4822524;29;20039;-68
2021/12/18 00:47:42;;;;;;;6.60;3.05;;;;;;;;;;4823929;29;20464;-68
2021/12/18 00:50:13;;;;;;;7.68;4.20;;;;;;;;;;4824224;29;20402;-68
2021/12/18 00:52:39;;;;;;;8.65;4.65;;;;;;;;;;4824025;29;20091;-68
2021/12/18 00:55:05;;;;;;;15.50;6.80;;;;;;;;;;4823390;29;20034;-69
2021/12/18 00:57:31;;;;;;;7.97;4.07;;;;;;;;;;4831977;29;20046;-69
2021/12/18 01:00:03;;;;;;;7.28;4.32;;;;;;;;;;4842320;29;20351;-67
2021/12/18 01:02:30;;;;;;;8.75;5.43;;;;;;;;;;4841829;29;20046;-68
2021/12/18 01:04:56;;;;;;;8.68;4.85;;;;;;;;;;4842401;29;20058;-68
2021/12/18 01:07:22;;;;;;;7.63;5.18;;;;;;;;;;4842112;29;20038;-69
2021/12/18 01:12:32;;;;;;;11.43;5.53;;;;;;;;;;4841922;29;20118;-68
2021/12/18 01:25:10;;;;;;;11.70;6.60;;;;;;;;;;4841441;29;20050;-69
2021/12/18 01:27:36;;;;;;;11.73;6.35;;;;;;;;;;4841673;29;20091;-69
2021/12/18 01:30:08;;;;;;;12.82;5.93;;;;;;;;;;4841956;29;20034;-69
2021/12/18 01:32:34;;;;;;;13.63;5.95;;;;;;;;;;4841639;29;20038;-70
2021/12/18 01:35:01;;;;;;;12.10;5.70;;;;;;;;;;4841774;29;20083;-69
2021/12/18 01:37:27;;;;;;;8.95;5.93;;;;;;;;;;4836017;29;20444;-69
2021/12/18 01:39:54;;;;;;;13.15;6.07;;;;;;;;;;4830769;29;20034;-70
2021/12/18 01:45:15;;;;;;;8.48;5.28;;;;;;;;;;4823275;29;20038;-68
2021/12/18 01:53:11;;;;;;;9.13;5.72;;;;;;;;;;4823465;29;20113;-69
2021/12/18 01:55:39;;;;;;;15.65;6.13;;;;;;;;;;4822874;29;20031;-70
2021/12/18 01:58:06;;;;;;;11.65;7.22;;;;;;;;;;4823213;29;20075;-69
2021/12/18 02:00:38;;;;;;;14.65;6.05;;;;;;;;;;4823403;29;20685;-69
2021/12/18 02:03:05;;;;;;;18.43;6.80;;;;;;;;;;4822659;29;20513;-69
2021/12/18 02:05:31;;;;;;;12.73;6.18;;;;;;;;;;4823266;29;20046;-69
2021/12/18 02:07:59;;;;;;;15.93;5.15;;;;;;;;;;4823038;29;20475;-69
2021/12/18 02:10:28;;;;;;;13.13;5.28;;;;;;;;;;4837602;29;20102;-69
2021/12/18 02:13:03;;;;;;;8.93;5.10;;;;;;;;;;4841514;29;20039;-69
2021/12/18 02:21:07;;;;;;;8.07;3.95;;;;;;;;;;4822958;29;20046;-68
2021/12/18 02:23:39;;;;;;;10.73;4.47;;;;;;;;;;4822144;29;20146;-70
2021/12/18 02:26:06;;;;;;;6.78;3.90;;;;;;;;;;4822702;29;20410;-70
2021/12/18 02:28:32;;;;;;;6.50;3.33;;;;;;;;;;4822206;29;20462;-70
2021/12/18 02:30:58;;;;;;;5.82;3.30;;;;;;;;;;4822237;29;20068;-70
2021/12/18 02:33:25;;;;;;;5.03;3.15;;;;;;;;;;4822811;29;20470;-69
2021/12/18 02:35:54;;;;;;;5.97;3.08;;;;;;;;;;4821824;29;20501;-69
2021/12/18 02:38:27;;;;;;;5.03;3.38;;;;;;;;;;4822192;29;20027;-68
2021/12/18 02:41:03;;;;;;;6.30;3.13;;;;;;;;;;4822040;29;20073;-69
2021/12/18 02:43:37;;;;;;;5.00;3.15;;;;;;;;;;4822943;29;20034;-68
2021/12/18 02:46:08;;;;;;;5.13;3.50;;;;;;;;;;4822480;29;20481;-70
2021/12/18 02:48:36;;;;;;;5.50;3.67;;;;;;;;;;4822429;29;20050;-70
2021/12/18 02:51:03;;;;;;;8.48;3.90;;;;;;;;;;4822518;29;20094;-68
2021/12/18 02:53:29;;;;;;;5.07;3.45;;;;;;;;;;4822016;29;20050;-69
2021/12/18 02:55:58;;;;;;;6.80;3.60;;;;;;;;;;4822967;29;20037;-69
2021/12/18 02:58:25;;;;;;;5.50;3.30;;;;;;;;;;4822279;29;20061;-69
2021/12/18 03:00:52;;;;;;;6.15;3.15;;;;;;;;;;4821759;29;20027;-69
2021/12/18 03:03:18;;;;;;;7.72;3.40;;;;;;;;;;4822433;29;20136;-70
2021/12/18 03:05:59;;;;;;;8.40;3.67;;;;;;;;;;4822780;29;21092;-69
2021/12/18 03:08:39;;;;;;;8.32;3.40;;;;;;;;;;4821975;29;20091;-69
2021/12/18 03:24:41;;;;;;;5.60;3.58;;;;;;;;;;4826243;29;20406;-69
2021/12/18 03:27:07;;;;;;;8.20;3.60;;;;;;;;;;4840599;29;20482;-70
2021/12/18 03:29:33;;;;;;;7.53;4.10;;;;;;;;;;4840018;29;20061;-71
2021/12/18 03:32:00;;;;;;;6.13;3.88;;;;;;;;;;4839800;29;20108;-71
2021/12/18 03:34:25;;;;;;;5.78;3.80;;;;;;;;;;4840750;29;20030;-69
2021/12/18 03:36:52;;;;;;;6.78;4.47;;;;;;;;;;4842821;29;20063;-69
2021/12/18 03:39:18;;;;;;;5.63;4.07;;;;;;;;;;4843421;29;20375;-69
2021/12/18 03:41:44;;;;;;;5.80;3.35;;;;;;;;;;4843353;29;20042;-69
2021/12/18 03:44:10;;;;;;;6.00;3.85;;;;;;;;;;4843431;29;20087;-68
2021/12/18 03:46:36;;;;;;;6.00;3.80;;;;;;;;;;4843206;29;20034;-70
2021/12/18 03:49:03;;;;;;;7.97;4.10;;;;;;;;;;4843085;29;20034;-70
2021/12/18 03:51:29;;;;;;;6.32;3.90;;;;;;;;;;4843371;29;20509;-69
2021/12/18 03:53:54;;;;;;;6.70;4.13;;;;;;;;;;4842811;29;20152;-69
2021/12/18 03:56:20;;;;;;;6.78;3.50;;;;;;;;;;4843254;29;20071;-69
2021/12/18 03:58:46;;;;;;;6.88;3.58;;;;;;;;;;4843299;29;20367;-70
2021/12/18 04:01:12;;;;;;;6.15;3.58;;;;;;;;;;4843612;29;20062;-68
2021/12/18 04:03:38;;;;;;;6.13;3.95;;;;;;;;;;4836992;29;20121;-70
2021/12/18 04:06:04;;;;;;;7.28;3.78;;;;;;;;;;4824523;29;20368;-70
2021/12/18 04:08:30;;;;;;;4.60;2.75;;;;;;;;;;4824603;29;20129;-68
2021/12/18 04:10:56;;;;;;;5.70;3.20;;;;;;;;;;4824863;29;20049;-69
2021/12/18 04:13:21;;;;;;;6.32;3.80;;;;;;;;;;4824699;29;20034;-69
2021/12/18 04:15:47;;;;;;;5.85;3.28;;;;;;;;;;4824538;29;20067;-70
2021/12/18 04:18:13;;;;;;;6.45;3.38;;;;;;;;;;4824383;29;20026;-68
2021/12/18 04:20:39;;;;;;;3.92;2.13;;;;;;;;;;4824844;29;20475;-70
2021/12/18 04:23:05;;;;;;;5.47;2.20;;;;;;;;;;4836934;29;20022;-67
2021/12/18 04:25:31;;;;;;;3.15;2.42;;;;;;;;;;4842218;29;20042;-69
2021/12/18 04:27:56;;;;;;;4.20;2.00;;;;;;;;;;4826372;29;20060;-68
2021/12/18 04:30:22;;;;;;;5.93;2.28;;;;;;;;;;4829199;29;20054;-68
2021/12/18 04:32:48;;;;;;;4.18;2.00;;;;;;;;;;4832821;29;20070;-68
2021/12/18 04:35:14;;;;;;;3.55;2.38;;;;;;;;;;4824818;29;20042;-68
2021/12/18 04:37:40;;;;;;;3.70;2.42;;;;;;;;;;4824332;29;20095;-69
2021/12/18 04:40:07;;;;;;;4.07;2.03;;;;;;;;;;4825364;29;20038;-68
2021/12/18 04:42:33;;;;;;;5.15;2.45;;;;;;;;;;4821775;29;20034;-70
2021/12/18 04:44:59;;;;;;;5.13;2.78;;;;;;;;;;4824077;29;20471;-71
2021/12/18 04:47:24;;;;;;;5.35;2.47;;;;;;;;;;4823996;29;20109;-73
2021/12/18 04:49:50;;;;;;;4.93;2.70;;;;;;;;;;4824968;29;20175;-69
2021/12/18 04:52:16;;;;;;;5.90;2.90;;;;;;;;;;4825388;29;20035;-71
2021/12/18 04:54:44;;;;;;;6.85;2.38;;;;;;;;;;4833275;29;20512;-69
2021/12/18 04:57:10;;;;;;;7.65;2.45;;;;;;;;;;4826891;29;20493;-70
2021/12/18 04:59:42;;;;;;;7.72;2.83;;;;;;;;;;4824846;29;20070;-70
2021/12/18 05:02:08;;;;;;;4.85;2.45;;;;;;;;;;4825443;29;20035;-68
2021/12/18 05:04:34;;;;;;;3.72;2.00;;;;;;;;;;4825001;29;20087;-69
2021/12/18 05:07:00;;;;;;;8.23;3.65;;;;;;;;;;4833002;29;20042;-70
2021/12/18 05:09:26;;;;;;;4.57;3.05;;;;;;;;;;4842797;29;20037;-72
2021/12/18 05:11:51;;;;;;;6.05;3.08;;;;;;;;;;4843210;29;20069;-69
2021/12/18 05:14:17;;;;;;;5.55;2.70;;;;;;;;;;4846166;29;20062;-71
2021/12/18 05:16:43;;;;;;;5.10;2.90;;;;;;;;;;4842617;29;20045;-71
2021/12/18 05:19:09;;;;;;;6.25;3.55;;;;;;;;;;4843357;29;20029;-70
2021/12/18 05:21:35;;;;;;;4.22;2.63;;;;;;;;;;4842885;29;20045;-70
2021/12/18 05:24:01;;;;;;;5.68;2.97;;;;;;;;;;4842935;29;20033;-71
2021/12/18 05:26:27;;;;;;;5.45;2.97;;;;;;;;;;4843287;29;20045;-69
2021/12/18 05:28:53;;;;;;;5.15;2.58;;;;;;;;;;4842384;29;20045;-71
2021/12/18 05:31:19;;;;;;;6.78;3.88;;;;;;;;;;4842714;29;20038;-71
2021/12/18 05:33:47;;;;;;;5.82;2.60;;;;;;;;;;4842825;29;20382;-73
2021/12/18 05:36:31;;;;;;;4.75;2.80;;;;;;;;;;4842715;29;20037;-73
2021/12/18 05:39:10;;;;;;;5.35;2.95;;;;;;;;;;4842741;29;20038;-69
2021/12/18 05:41:36;;;;;;;5.68;2.60;;;;;;;;;;4842624;29;20478;-69
2021/12/18 05:44:02;;;;;;;4.90;3.10;;;;;;;;;;4842950;29;20044;-69
2021/12/18 05:46:28;;;;;;;4.38;2.60;;;;;;;;;;4842629;29;20060;-71
2021/12/18 05:48:53;;;;;;;3.83;2.25;;;;;;;;;;4841412;29;20478;-72
2021/12/18 05:51:20;;;;;;;4.55;2.75;;;;;;;;;;4842322;29;20041;-71
2021/12/18 05:53:46;;;;;;;5.72;3.33;;;;;;;;;;4842748;29;20033;-71
2021/12/18 05:56:12;;;;;;;3.88;2.13;;;;;;;;;;4842498;29;20045;-72
2021/12/18 05:58:38;;;;;;;6.10;2.72;;;;;;;;;;4842011;29;20462;-72
2021/12/18 06:01:04;;;;;;;4.25;2.45;;;;;;;;;;4842628;29;20513;-72
2021/12/18 06:03:30;;;;;;;6.40;3.00;;;;;;;;;;4842503;29;20053;-71
2021/12/18 06:05:55;;;;;;;5.20;2.90;;;;;;;;;;4842519;29;20042;-72
2021/12/18 06:08:21;;;;;;;4.43;2.70;;;;;;;;;;4842184;29;20588;-71
2021/12/18 06:10:47;;;;;;;7.25;3.58;;;;;;;;;;4842159;29;20045;-71
2021/12/18 06:13:14;;;;;;;7.15;3.28;;;;;;;;;;4842002;29;20628;-70
2021/12/18 06:15:39;;;;;;;6.45;3.03;;;;;;;;;;4841761;29;20098;-70
2021/12/18 06:18:05;;;;;;;6.80;3.70;;;;;;;;;;4842212;29;20025;-70
2021/12/18 06:20:31;;;;;;;8.77;4.20;;;;;;;;;;4842597;29;20485;-71
2021/12/18 06:22:57;;;;;;;7.60;4.15;;;;;;;;;;4842547;29;20026;-70
2021/12/18 06:25:23;;;;;;;10.10;4.25;;;;;;;;;;4842347;29;20086;-69
2021/12/18 06:27:49;;;;;;;6.38;4.15;;;;;;;;;;4842277;29;20387;-70
2021/12/18 06:30:17;;;;;;;8.15;4.82;;;;;;;;;;4841701;29;20117;-71
2021/12/18 06:32:43;;;;;;;16.55;5.13;;;;;;;;;;4840865;29;20026;-71
2021/12/18 06:35:09;;;;;;;12.45;5.97;;;;;;;;;;4841576;29;20451;-75
2021/12/18 06:37:36;;;;;;;11.98;5.75;;;;;;;;;;4841577;29;20038;-74
2021/12/18 06:40:04;;;;;;;11.25;5.55;;;;;;;;;;4841994;29;20046;-72
2021/12/18 06:42:30;;;;;;;12.70;5.82;;;;;;;;;;4842065;29;20158;-72
2021/12/18 06:44:55;;;;;;;17.35;6.43;;;;;;;;;;4842375;29;20050;-70
2021/12/18 06:47:21;;;;;;;16.15;6.18;;;;;;;;;;4839536;29;20037;-70
2021/12/18 06:49:47;;;;;;;10.75;5.97;;;;;;;;;;4841340;29;20054;-73
2021/12/18 06:52:13;;;;;;;10.90;7.05;;;;;;;;;;4841673;29;20030;-71
2021/12/18 06:54:38;;;;;;;15.50;6.65;;;;;;;;;;4841461;29;20038;-70
2021/12/18 06:57:04;;;;;;;10.75;6.75;;;;;;;;;;4830373;29;20030;-71
2021/12/18 06:59:30;;;;;;;8.00;5.47;;;;;;;;;;4841823;29;20050;-72
2021/12/18 07:01:56;;;;;;;10.63;6.13;;;;;;;;;;4841697;29;20030;-70
2021/12/18 07:04:24;;;;;;;10.63;5.43;;;;;;;;;;4820976;29;20105;-71
2021/12/18 07:06:52;;;;;;;11.40;6.53;;;;;;;;;;4840125;29;20041;-73
2021/12/18 07:09:19;;;;;;;16.83;7.75;;;;;;;;;;4840036;29;20474;-71
2021/12/18 07:11:44;;;;;;;15.00;7.63;;;;;;;;;;4844009;29;20030;-70
2021/12/18 07:14:12;;;;;;;13.45;7.43;;;;;;;;;;4844277;29;20034;-70
2021/12/18 07:16:39;;;;;;;15.68;7.38;;;;;;;;;;4844011;29;20041;-71
2021/12/18 07:19:05;;;;;;;11.55;5.57;;;;;;;;;;4843277;29;20084;-71
2021/12/18 07:21:30;;;;;;;11.55;5.30;;;;;;;;;;4843333;29;20054;-70
2021/12/18 07:23:56;;;;;;;7.18;4.40;;;;;;;;;;4843593;29;20116;-74
2021/12/18 07:26:22;;;;;;;13.77;6.45;;;;;;;;;;4840918;29;20019;-70
2021/12/18 07:28:48;;;;;;;12.10;5.30;;;;;;;;;;4839087;29;20053;-71
2021/12/18 07:31:13;;;;;;;10.95;6.40;;;;;;;;;;4835332;29;20030;-72
2021/12/18 07:33:41;;;;;;;9.95;6.15;;;;;;;;;;4832433;29;20043;-71
2021/12/18 07:36:08;;;;;;;12.57;5.75;;;;;;;;;;4833380;29;20532;-70
2021/12/18 07:38:35;;;;;;;17.33;6.00;;;;;;;;;;4824234;29;20045;-71
2021/12/18 07:41:01;;;;;;;11.10;5.65;;;;;;;;;;4835154;29;20091;-70
2021/12/18 07:43:26;;;;;;;19.67;7.53;;;;;;;;;;4843594;29;20065;-68
2021/12/18 07:45:52;;;;;;;29.13;12.20;;;;;;;;;;4843421;29;20038;-69
2021/12/18 07:48:18;;;;;;;10.32;6.78;;;;;;;;;;4842650;29;20034;-74
2021/12/18 07:50:44;;;;;;;9.02;5.70;;;;;;;;;;4843279;29;20030;-69
2021/12/18 07:53:11;;;;;;;11.15;5.32;;;;;;;;;;4843114;29;20037;-71
2021/12/18 07:55:38;;;;;;;7.95;5.05;;;;;;;;;;4841412;29;20026;-71
2021/12/18 07:58:04;;;;;;;10.45;6.10;;;;;;;;;;4842808;29;20049;-70
2021/12/18 08:00:30;;;;;;;15.35;6.05;;;;;;;;;;4842132;29;20693;-70
2021/12/18 08:02:56;;;;;;;27.80;10.88;;;;;;;;;;4842087;29;20065;-70
2021/12/18 08:05:22;;;;;;;30.48;10.40;;;;;;;;;;4842865;29;20094;-70
2021/12/18 08:07:48;;;;;;;30.10;10.27;;;;;;;;;;4843059;29;20053;-70
2021/12/18 08:10:14;;;;;;;28.27;10.15;;;;;;;;;;4842147;29;20125;-72
2021/12/18 08:12:40;;;;;;;9.93;5.97;;;;;;;;;;4842806;29;20106;-74
2021/12/18 08:15:07;;;;;;;10.98;4.85;;;;;;;;;;4842821;29;20091;-72
2021/12/18 08:17:33;;;;;;;6.07;4.13;;;;;;;;;;4842093;29;20034;-71
2021/12/18 08:20:00;;;;;;;7.40;3.92;;;;;;;;;;4840507;29;20393;-70
2021/12/18 08:22:25;;;;;;;10.30;4.40;;;;;;;;;;4840840;29;20048;-73
2021/12/18 08:24:51;;;;;;;7.78;4.22;;;;;;;;;;4841286;29;20034;-72
2021/12/18 08:27:18;;;;;;;7.97;4.45;;;;;;;;;;4841518;29;20038;-71
2021/12/18 08:29:43;;;;;;;6.85;4.57;;;;;;;;;;4841456;29;20042;-73
2021/12/18 08:32:09;;;;;;;9.27;4.88;;;;;;;;;;4841296;29;20041;-75
2021/12/18 08:34:35;;;;;;;8.75;4.10;;;;;;;;;;4841943;29;20046;-74
2021/12/18 08:37:01;;;;;;;6.70;4.07;;;;;;;;;;4842778;29;20109;-71
2021/12/18 08:39:27;;;;;;;9.90;3.85;;;;;;;;;;4841971;29;20026;-73
2021/12/18 08:41:53;;;;;;;12.52;4.32;;;;;;;;;;4841761;29;20378;-73
2021/12/18 08:44:19;;;;;;;5.95;3.53;;;;;;;;;;4842192;29;20034;-72
2021/12/18 08:46:45;;;;;;;7.57;3.83;;;;;;;;;;4842285;29;20064;-70
2021/12/18 08:49:11;;;;;;;8.52;3.45;;;;;;;;;;4841887;29;20529;-74
2021/12/18 08:51:38;;;;;;;6.57;3.70;;;;;;;;;;4842186;29;20038;-71
2021/12/18 08:54:04;;;;;;;9.07;4.35;;;;;;;;;;4841407;29;20025;-68
2021/12/18 08:56:30;;;;;;;8.27;4.55;;;;;;;;;;4832111;29;20065;-73
2021/12/18 08:58:58;;;;;;;12.55;4.10;;;;;;;;;;4823809;29;20118;-71
2021/12/18 09:01:26;;;;;;;7.57;4.03;;;;;;;;;;4822810;29;20174;-71
2021/12/18 09:03:52;;;;;;;6.90;4.03;;;;;;;;;;4823710;29;20100;-73
2021/12/18 09:06:19;;;;;;;4.78;3.15;;;;;;;;;;4823834;29;20035;-70
2021/12/18 09:08:45;;;;;;;8.05;3.78;;;;;;;;;;4822650;29;20042;-68
2021/12/18 09:11:11;;;;;;;6.05;3.67;;;;;;;;;;4823456;29;20046;-72
2021/12/18 09:13:37;;;;;;;8.95;4.70;;;;;;;;;;4823618;29;20037;-68
2021/12/18 09:16:03;;;;;;;5.25;2.85;;;;;;;;;;4823249;29;20030;-69
2021/12/18 09:18:28;;;;;;;6.43;3.95;;;;;;;;;;4823170;29;20113;-68
2021/12/18 09:20:54;;;;;;;6.30;3.90;;;;;;;;;;4823496;29;20091;-72
2021/12/18 09:23:22;;;;;;;7.15;3.63;;;;;;;;;;4823171;29;20117;-66
2021/12/18 09:25:48;;;;;;;5.70;3.42;;;;;;;;;;4823337;29;20039;-69
2021/12/18 09:28:14;;;;;;;4.85;2.88;;;;;;;;;;4823078;29;20040;-69
2021/12/18 09:30:40;;;;;;;5.35;3.20;;;;;;;;;;4823280;29;20034;-69
2021/12/18 09:33:07;;;;;;;7.88;3.85;;;;;;;;;;4821475;29;20023;-69
2021/12/18 09:35:33;;;;;;;5.47;3.88;;;;;;;;;;4828444;29;20037;-70
2021/12/18 09:37:59;;;;;;;6.43;3.55;;;;;;;;;;4828620;29;20039;-69
2021/12/18 09:40:25;;;;;;;5.85;2.63;;;;;;;;;;4836517;29;20587;-69
2021/12/18 09:42:51;;;;;;;4.13;2.60;;;;;;;;;;4826321;29;20052;-69
2021/12/18 09:45:17;;;;;;;4.97;3.13;;;;;;;;;;4840909;29;20034;-66
2021/12/18 09:47:45;;;;;;;9.05;3.20;;;;;;;;;;4838313;29;21011;-69
2021/12/18 09:50:11;;;;;;;5.53;3.65;;;;;;;;;;4836820;29;20443;-70
2021/12/18 09:52:38;;;;;;;6.07;3.97;;;;;;;;;;4841315;29;20026;-73
2021/12/18 09:55:06;;;;;;;3.83;2.42;;;;;;;;;;4841022;29;20037;-69
2021/12/18 09:57:32;;;;;;;7.47;3.13;;;;;;;;;;4842446;29;20026;-74
2021/12/18 09:59:58;;;;;;;5.95;2.97;;;;;;;;;;4842056;29;20050;-68
2021/12/18 10:02:24;;;;;;;9.00;3.33;;;;;;;;;;4841447;29;20093;-69
2021/12/18 10:04:50;;;;;;;6.97;3.40;;;;;;;;;;4827402;29;20038;-68
2021/12/18 10:07:22;;;;;;;9.25;3.63;;;;;;;;;;4822697;29;20042;-69
2021/12/18 10:09:50;;;;;;;6.38;3.15;;;;;;;;;;4822302;29;20050;-73
2021/12/18 10:12:18;;;;;;;5.93;3.15;;;;;;;;;;4822285;29;20035;-69
2021/12/18 10:14:46;;;;;;;5.20;2.92;;;;;;;;;;4822559;29;20035;-68
2021/12/18 10:17:39;;;;;;;4.32;2.80;;;;;;;;;;4822146;29;20049;-67
2021/12/18 10:20:11;;;;;;;4.28;2.60;;;;;;;;;;4821690;29;20410;-73
2021/12/18 10:22:51;;;;;;;8.02;3.30;;;;;;;;;;4822865;29;20034;-67
2021/12/18 10:25:29;;;;;;;4.60;2.80;;;;;;;;;;4828602;29;20101;-68
2021/12/18 10:28:10;;;;;;;4.53;2.80;;;;;;;;;;4840209;29;20478;-71
2021/12/18 10:30:46;;;;;;;7.88;3.55;;;;;;;;;;4839923;29;20038;-68
2021/12/18 10:33:14;;;;;;;6.55;3.10;;;;;;;;;;4840144;29;20818;-70
2021/12/18 10:35:52;;;;;;;5.07;2.50;;;;;;;;;;4840004;29;20086;-70
2021/12/18 10:38:40;;;;;;;5.40;3.03;;;;;;;;;;4839323;29;20082;-67
2021/12/18 10:41:38;;;;;;;4.82;2.60;;;;;;;;;;4839942;29;20038;-72
2021/12/18 10:44:10;;;;;;;6.60;2.88;;;;;;;;;;4809474;29;20042;-66
2021/12/18 10:46:45;;;;;;;7.10;3.22;;;;;;;;;;4843553;29;20080;-70
2021/12/18 10:49:17;;;;;;;6.97;2.85;;;;;;;;;;4843810;29;20057;-72
2021/12/18 10:51:45;;;;;;;4.95;2.90;;;;;;;;;;4841693;29;20570;-67
2021/12/18 10:54:22;;;;;;;5.60;3.30;;;;;;;;;;4842986;29;20030;-70
2021/12/18 10:56:53;;;;;;;4.95;2.78;;;;;;;;;;4842662;29;20062;-69
2021/12/18 10:59:31;;;;;;;5.45;3.20;;;;;;;;;;4842616;29;20058;-67
2021/12/18 11:02:00;;;;;;;5.15;3.40;;;;;;;;;;4843278;29;20037;-66
2021/12/18 11:04:28;;;;;;;6.13;3.42;;;;;;;;;;4843753;29;20049;-67
2021/12/18 11:06:55;;;;;;;5.00;3.28;;;;;;;;;;4843203;29;20069;-67
2021/12/18 11:09:30;;;;;;;5.95;3.03;;;;;;;;;;4843270;29;20478;-68
2021/12/18 11:14:45;;;;;;;4.95;2.58;;;;;;;;;;4843585;29;20041;-67
2021/12/18 11:17:14;;;;;;;5.47;3.15;;;;;;;;;;4841369;29;20021;-68
2021/12/18 11:19:41;;;;;;;7.57;3.13;;;;;;;;;;4841582;29;20030;-68
2021/12/18 11:22:12;;;;;;;5.13;3.22;;;;;;;;;;4842942;29;20473;-68
2021/12/18 11:24:45;;;;;;;5.05;3.17;;;;;;;;;;4842116;29;20038;-68
2021/12/18 11:27:14;;;;;;;6.93;3.58;;;;;;;;;;4842997;29;20050;-67
2021/12/18 11:29:45;;;;;;;4.90;3.00;;;;;;;;;;4842584;29;20030;-68
2021/12/18 11:32:29;;;;;;;8.95;3.20;;;;;;;;;;4842940;29;20030;-68
2021/12/18 11:34:57;;;;;;;7.55;3.65;;;;;;;;;;4842997;29;20068;-67
2021/12/18 11:37:25;;;;;;;5.63;2.80;;;;;;;;;;4843100;29;20094;-68
2021/12/18 11:39:54;;;;;;;4.40;2.60;;;;;;;;;;4843194;29;20125;-68
2021/12/18 11:42:28;;;;;;;4.25;3.08;;;;;;;;;;4842827;29;20046;-70
2021/12/18 11:44:58;;;;;;;4.60;2.80;;;;;;;;;;4842896;29;20504;-69
2021/12/18 11:47:56;;;;;;;4.85;2.70;;;;;;;;;;4842915;29;20121;-70
2021/12/18 11:50:24;;;;;;;4.15;2.50;;;;;;;;;;4843066;29;20061;-67
2021/12/18 11:53:06;;;;;;;4.88;3.03;;;;;;;;;;4842888;29;20030;-69
2021/12/18 11:55:36;;;;;;;8.18;2.63;;;;;;;;;;4842619;29;20109;-69
2021/12/18 11:58:13;;;;;;;5.40;2.78;;;;;;;;;;4841367;29;20046;-69
2021/12/18 12:00:45;;;;;;;7.75;2.85;;;;;;;;;;4842061;29;20038;-67
2021/12/18 12:03:26;;;;;;;7.00;2.70;;;;;;;;;;4842225;29;20433;-67
2021/12/18 12:05:52;;;;;;;4.95;2.60;;;;;;;;;;4842565;29;20054;-69
2021/12/18 12:08:36;;;;;;;4.55;2.40;;;;;;;;;;4841985;29;20078;-68
2021/12/18 12:11:26;;;;;;;5.20;3.33;;;;;;;;;;4842321;29;20481;-67
2021/12/18 12:13:55;;;;;;;7.93;3.30;;;;;;;;;;4842890;29;20063;-67
2021/12/18 12:16:43;;;;;;;5.00;3.20;;;;;;;;;;4841070;29;20036;-68
2021/12/18 12:19:09;;;;;;;4.88;3.58;;;;;;;;;;4841719;29;20081;-68
2021/12/18 12:21:38;;;;;;;4.10;2.53;;;;;;;;;;4841878;29;20488;-68
2021/12/18 12:24:05;;;;;;;4.50;2.75;;;;;;;;;;4841972;29;20125;-68
2021/12/18 12:26:31;;;;;;;5.47;2.70;;;;;;;;;;4842509;29;20358;-68
2021/12/18 12:28:57;;;;;;;3.53;2.42;;;;;;;;;;4841286;29;20042;-69
2021/12/18 12:31:23;;;;;;;4.80;2.80;;;;;;;;;;4830855;29;20026;-73
2021/12/18 12:33:50;;;;;;;5.65;3.47;;;;;;;;;;4829812;29;20034;-71
2021/12/18 12:36:24;;;;;;;6.88;3.78;;;;;;;;;;4842992;29;20030;-70
2021/12/18 12:38:55;;;;;;;5.28;3.05;;;;;;;;;;4841782;29;20092;-68
2021/12/18 12:41:26;;;;;;;7.28;3.03;;;;;;;;;;4842118;29;20030;-69
2021/12/18 12:43:58;;;;;;;4.03;2.95;;;;;;;;;;4833542;29;20380;-70
2021/12/18 12:46:25;;;;;;;6.13;3.15;;;;;;;;;;4823104;29;20044;-69
2021/12/18 12:49:11;;;;;;;4.70;2.70;;;;;;;;;;4823399;29;20038;-68
2021/12/18 12:52:04;;;;;;;6.47;3.17;;;;;;;;;;4823600;29;20117;-68
2021/12/18 12:55:03;;;;;;;4.30;3.10;;;;;;;;;;4815552;29;20059;-70
2021/12/18 12:57:30;;;;;;;4.82;3.22;;;;;;;;;;4823568;29;20038;-71
2021/12/18 12:59:58;;;;;;;6.45;2.78;;;;;;;;;;4823700;29;20086;-68
2021/12/18 13:02:29;;;;;;;5.60;3.13;;;;;;;;;;4823821;29;20102;-68
2021/12/18 13:05:06;;;;;;;4.53;3.40;;;;;;;;;;4830359;29;20486;-70
2021/12/18 13:07:32;;;;;;;4.85;2.60;;;;;;;;;;4842115;29;20042;-68
2021/12/18 13:09:58;;;;;;;7.15;3.70;;;;;;;;;;4841899;29;20057;-71
2021/12/18 13:12:24;;;;;;;6.75;3.00;;;;;;;;;;4842241;29;20038;-70
2021/12/18 13:14:52;;;;;;;5.43;2.65;;;;;;;;;;4841930;29;20486;-69
2021/12/18 13:17:22;;;;;;;10.13;3.30;;;;;;;;;;4841702;29;20045;-68
2021/12/18 13:19:59;;;;;;;10.15;4.05;;;;;;;;;;4841492;29;20034;-70
2021/12/18 13:22:32;;;;;;;6.90;3.15;;;;;;;;;;4841708;29;20041;-71
2021/12/18 13:25:11;;;;;;;5.43;2.90;;;;;;;;;;4841715;29;20426;-69
2021/12/18 13:27:40;;;;;;;6.22;3.15;;;;;;;;;;4840664;29;20034;-69
2021/12/18 13:30:20;;;;;;;8.32;2.95;;;;;;;;;;4842051;29;20041;-68
2021/12/18 13:32:50;;;;;;;4.93;2.95;;;;;;;;;;4841933;29;20042;-69
2021/12/18 13:35:17;;;;;;;6.38;3.17;;;;;;;;;;4841750;29;20034;-69
2021/12/18 13:37:56;;;;;;;7.35;3.67;;;;;;;;;;4836801;29;20538;-73
2021/12/18 13:40:22;;;;;;;7.32;4.20;;;;;;;;;;4840263;29;20066;-68
2021/12/18 13:42:47;;;;;;;3.33;2.50;;;;;;;;;;4841106;29;20034;-69
2021/12/18 13:45:13;;;;;;;4.35;3.15;;;;;;;;;;4841062;29;20113;-72
2021/12/18 13:47:47;;;;;;;3.72;2.28;;;;;;;;;;4840837;29;20049;-71
2021/12/18 13:50:18;;;;;;;4.88;2.80;;;;;;;;;;4841595;29;20060;-69
2021/12/18 13:52:56;;;;;;;4.57;3.35;;;;;;;;;;4840526;29;20366;-72
2021/12/18 13:55:27;;;;;;;5.10;2.95;;;;;;;;;;4841766;29;20038;-71
2021/12/18 13:58:00;;;;;;;3.42;2.60;;;;;;;;;;4841641;29;20034;-73
2021/12/18 14:00:26;;;;;;;6.60;2.80;;;;;;;;;;4841434;29;20081;-70
2021/12/18 14:02:52;;;;;;;5.15;3.00;;;;;;;;;;4841255;29;20049;-72
2021/12/18 14:05:18;;;;;;;3.45;2.15;;;;;;;;;;4841512;29;20094;-68
2021/12/18 14:07:45;;;;;;;5.45;3.47;;;;;;;;;;4841342;29;20033;-67
2021/12/18 14:10:11;;;;;;;4.00;2.45;;;;;;;;;;4841539;29;20046;-70
2021/12/18 14:12:37;;;;;;;6.38;3.10;;;;;;;;;;4840806;29;20216;-71
2021/12/18 14:15:05;;;;;;;5.95;3.85;;;;;;;;;;4840990;29;20045;-74
2021/12/18 14:17:32;;;;;;;4.57;2.92;;;;;;;;;;4842339;29;20030;-71
2021/12/18 14:20:17;;;;;;;7.38;3.35;;;;;;;;;;4841463;29;20064;-71
2021/12/18 14:22:43;;;;;;;8.32;3.00;;;;;;;;;;4842132;29;20181;-69
2021/12/18 14:25:15;;;;;;;4.68;2.88;;;;;;;;;;4841929;29;20113;-68
2021/12/18 14:27:46;;;;;;;4.95;2.60;;;;;;;;;;4841665;29;20550;-68
2021/12/18 14:30:14;;;;;;;4.28;3.00;;;;;;;;;;4841820;29;20402;-67
2021/12/18 14:32:42;;;;;;;5.03;2.70;;;;;;;;;;4840547;29;20382;-69
2021/12/18 14:35:10;;;;;;;6.20;3.72;;;;;;;;;;4836522;29;20045;-69
2021/12/18 14:37:53;;;;;;;5.65;2.60;;;;;;;;;;4841102;29;20071;-69
2021/12/18 14:40:26;;;;;;;5.10;2.83;;;;;;;;;;4835026;29;20142;-69
2021/12/18 14:43:12;;;;;;;5.10;3.17;;;;;;;;;;4828356;29;20046;-70
2021/12/18 14:45:38;;;;;;;5.50;3.28;;;;;;;;;;4822530;29;20129;-69
2021/12/18 14:48:05;;;;;;;5.18;2.28;;;;;;;;;;4822687;29;20518;-70
2021/12/18 14:50:38;;;;;;;5.78;3.80;;;;;;;;;;4823348;29;20039;-69
2021/12/18 14:53:08;;;;;;;;;;;;;;;;;;4823223;29;20039;-70
2021/12/18 14:55:46;;;;;;;3.75;2.47;;;;;;;;;;4822139;29;19928;-69
2021/12/18 14:58:25;;;;;;;4.47;2.75;;;;;;;;;;4822665;29;20479;-68
2021/12/18 15:00:55;;;;;;;5.47;2.90;;;;;;;;;;4821703;29;20042;-70
2021/12/18 15:03:26;;;;;;;4.75;3.03;;;;;;;;;;4821854;29;20050;-70
2021/12/18 15:06:03;;;;;;;7.05;2.90;;;;;;;;;;4823079;29;20367;-72
2021/12/18 15:08:45;;;;;;;5.38;2.75;;;;;;;;;;4822505;29;20183;-71
2021/12/18 15:11:19;;;;;;;5.28;2.75;;;;;;;;;;4822054;29;20041;-70
2021/12/18 15:13:50;;;;;;;5.22;2.80;;;;;;;;;;4822481;29;20046;-72
2021/12/18 15:16:26;;;;;;;8.32;3.83;;;;;;;;;;4822408;29;20483;-72
2021/12/18 15:18:53;;;;;;;6.38;3.90;;;;;;;;;;4821905;29;20046;-70
2021/12/18 15:21:19;;;;;;;12.70;5.50;;;;;;;;;;4822204;29;20037;-71
2021/12/18 15:23:45;;;;;;;5.68;3.00;;;;;;;;;;4822132;29;20035;-70
2021/12/18 15:26:11;;;;;;;4.80;2.85;;;;;;;;;;4821647;29;20066;-70
2021/12/18 15:28:38;;;;;;;5.43;3.42;;;;;;;;;;4821547;29;20118;-71
2021/12/18 15:31:04;;;;;;;6.05;3.08;;;;;;;;;;4823373;29;20030;-70
2021/12/18 15:33:31;;;;;;;8.43;3.53;;;;;;;;;;4823721;29;20042;-71